Time;durP1;ratioP1;P1;durP2;ratioP2;P2;SDS_P1;SDS_P2;PMS_P1;PMS_P2;Temp;Humidity;BMP_temperature;BMP_pressure;BME280_temperature;BME280_humidity;BME280_pressure;Samples;Min_cycle;Max_cycle;Signal;HPM_P1;HPM_P2
2023/01/10 00:00:42;;;;;;;26.05;3.85;;;;;;;-146.73;nan;45944.28;6187100;23;20001;-95
2023/01/10 00:03:10;;;;;;;24.63;3.17;;;;;;;-146.73;nan;45932.47;6160687;23;20031;-95
2023/01/10 00:05:37;;;;;;;16.23;2.65;;;;;;;-146.73;nan;45960.06;6160779;23;20020;-95
2023/01/10 00:08:04;;;;;;;20.20;3.30;;;;;;;-146.73;nan;45936.41;6188104;23;20091;-94
2023/01/10 00:10:31;;;;;;;21.40;3.50;;;;;;;-146.73;nan;45930.47;6160164;23;20016;-96
2023/01/10 00:15:42;;;;;;;22.25;3.60;;;;;;;-146.73;nan;45906.81;6185841;23;20024;-96
2023/01/10 00:18:10;;;;;;;28.13;3.97;;;;;;;-146.73;nan;45833.81;6152542;23;20117;-96
2023/01/10 00:20:36;;;;;;;26.45;4.50;;;;;;;-146.73;nan;45573.41;6177175;23;20021;-96
2023/01/10 00:23:02;;;;;;;25.38;4.18;;;;;;;-146.73;nan;45620.75;6159310;23;20155;-96
2023/01/10 00:25:29;;;;;;;18.85;4.82;;;;;;;-146.73;nan;45750.97;6156524;23;20025;-96
2023/01/10 00:28:18;;;;;;;25.33;4.68;;;;;;;-146.73;nan;45652.31;6156486;23;20471;-96
2023/01/10 00:30:53;;;;;;;26.42;4.78;;;;;;;-146.73;nan;45632.59;6159862;23;20084;-96
2023/01/10 00:33:20;;;;;;;19.35;3.60;;;;;;;-146.73;nan;45620.75;6157301;23;20087;-96
2023/01/10 00:35:49;;;;;;;22.40;3.85;;;;;;;-146.73;nan;45530.00;6158916;23;20013;-96
2023/01/10 00:38:15;;;;;;;28.52;3.83;;;;;;;-146.73;nan;45593.13;6153755;23;20025;-96
2023/01/10 00:40:41;;;;;;;25.10;5.10;;;;;;;-146.73;nan;45466.88;6154096;23;20009;-95
2023/01/10 00:45:52;;;;;;;25.60;4.50;;;;;;;-146.73;nan;45640.47;6155432;23;20020;-96
2023/01/10 00:48:18;;;;;;;25.33;4.10;;;;;;;-146.73;nan;45693.75;6155530;23;20084;-96
2023/01/10 00:50:45;;;;;;;29.30;3.97;;;;;;;-146.73;nan;45703.63;6153270;23;20402;-93
2023/01/10 00:53:11;;;;;;;21.33;3.67;;;;;;;-146.73;nan;45762.78;6153640;23;20139;-96
2023/01/10 00:55:36;;;;;;;17.38;3.92;;;;;;;-146.73;nan;45818.03;6155014;23;20022;-96
2023/01/10 00:58:02;;;;;;;24.05;3.92;;;;;;;-146.73;nan;45861.44;6155479;23;20013;-96
2023/01/10 01:00:32;;;;;;;21.83;3.95;;;;;;;-146.73;nan;45839.72;6155351;23;20428;-96
2023/01/10 01:02:57;;;;;;;22.88;3.60;;;;;;;-146.73;nan;45821.97;6156545;23;20006;-96
2023/01/10 01:05:23;;;;;;;23.45;4.30;;;;;;;-146.73;nan;45818.03;6156176;23;20013;-96
2023/01/10 01:07:52;;;;;;;16.98;3.00;;;;;;;-146.73;nan;45894.97;6155402;23;20005;-96
2023/01/10 01:10:26;;;;;;;26.25;3.40;;;;;;;-146.73;nan;45891.03;6156821;23;20013;-95
2023/01/10 01:13:04;;;;;;;17.48;2.83;;;;;;;-146.73;nan;45881.16;6157276;23;20057;-95
2023/01/10 01:15:30;;;;;;;17.20;2.67;;;;;;;-146.73;nan;45865.38;6156800;23;20009;-96
2023/01/10 01:17:56;;;;;;;17.15;2.60;;;;;;;-146.73;nan;45879.19;6157558;23;20059;-96
2023/01/10 01:20:22;;;;;;;19.35;3.08;;;;;;;-146.73;nan;45863.41;6156380;23;20009;-96
2023/01/10 01:22:48;;;;;;;24.65;3.38;;;;;;;-146.73;nan;45831.84;6156213;23;20009;-94
2023/01/10 01:25:13;;;;;;;14.70;2.92;;;;;;;-146.73;nan;45843.69;6157921;23;20033;-96
2023/01/10 01:27:39;;;;;;;24.42;3.67;;;;;;;-146.73;nan;45825.94;6160461;23;20014;-95
2023/01/10 01:30:06;;;;;;;20.35;2.95;;;;;;;-146.73;nan;45861.44;6159533;23;20001;-95
2023/01/10 01:32:34;;;;;;;19.73;3.70;;;;;;;-146.73;nan;45902.88;6159697;23;20009;-93
2023/01/10 01:35:00;;;;;;;24.77;3.42;;;;;;;-146.73;nan;45883.13;6162695;23;20396;-95
2023/01/10 01:38:02;;;;;;;18.88;3.55;;;;;;;-146.73;nan;45879.19;6156560;23;20002;-94
2023/01/10 01:40:30;;;;;;;19.15;3.58;;;;;;;-146.73;nan;45887.09;6159437;23;20013;-96
2023/01/10 01:42:56;;;;;;;17.67;3.00;;;;;;;-146.73;nan;45920.63;6156409;23;20005;-96
2023/01/10 01:45:21;;;;;;;16.83;3.53;;;;;;;-146.73;nan;45887.09;6181548;23;20028;-96
2023/01/10 01:47:53;;;;;;;17.63;3.00;;;;;;;-146.73;nan;45904.84;6155210;23;20010;-95
2023/01/10 01:50:41;;;;;;;15.50;2.85;;;;;;;-146.73;nan;45924.56;6157163;23;20005;-96
2023/01/10 01:53:19;;;;;;;18.17;2.78;;;;;;;-146.73;nan;45946.28;6156631;23;20041;-96
2023/01/10 01:55:46;;;;;;;20.67;2.67;;;;;;;-146.73;nan;45948.25;6156683;23;20002;-96
2023/01/10 01:58:17;;;;;;;10.70;2.35;;;;;;;-146.73;nan;45940.34;6157442;23;20088;-96
2023/01/10 02:00:43;;;;;;;15.20;2.42;;;;;;;-146.73;nan;46100.16;6183371;23;20014;-95
2023/01/10 02:03:10;;;;;;;15.90;2.63;;;;;;;-146.73;nan;45940.34;6162054;23;20001;-95
2023/01/10 02:05:38;;;;;;;19.23;2.78;;;;;;;-146.73;nan;45944.28;6161040;23;20004;-96
2023/01/10 02:08:05;;;;;;;17.33;2.95;;;;;;;-146.73;nan;45979.81;6158023;23;20005;-96
2023/01/10 02:10:53;;;;;;;18.40;2.63;;;;;;;-146.73;nan;45964.03;6158813;23;20013;-96
2023/01/10 02:13:23;;;;;;;14.63;2.35;;;;;;;-146.73;nan;45904.84;6163353;23;20137;-94
2023/01/10 02:15:51;;;;;;;13.93;2.38;;;;;;;-146.73;nan;45975.88;6162207;23;20005;-96
2023/01/10 02:18:20;;;;;;;17.48;2.42;;;;;;;-146.73;nan;45889.06;6185871;23;20021;-95
2023/01/10 02:21:23;;;;;;;20.42;2.40;;;;;;;-146.73;nan;45948.25;6159014;23;20096;-95
2023/01/10 02:24:10;;;;;;;10.40;2.00;;;;;;;-146.73;nan;45922.59;6158629;23;20006;-96
2023/01/10 02:26:49;;;;;;;19.25;3.08;;;;;;;-146.73;nan;45889.06;6157249;23;20013;-95
2023/01/10 02:29:20;;;;;;;14.07;2.60;;;;;;;-146.73;nan;45906.81;6157249;23;20024;-95
2023/01/10 02:32:11;;;;;;;18.95;2.40;;;;;;;-146.73;nan;45898.91;6159169;23;20001;-96
2023/01/10 02:34:48;;;;;;;14.50;2.42;;;;;;;-146.73;nan;45879.19;6159307;23;20029;-95
2023/01/10 02:37:25;;;;;;;16.52;2.60;;;;;;;-146.73;nan;45918.66;6159356;23;20004;-96
2023/01/10 02:40:17;;;;;;;16.10;2.65;;;;;;;-146.73;nan;45910.75;6157139;23;20021;-95
2023/01/10 02:43:08;;;;;;;18.33;2.78;;;;;;;-146.73;nan;45900.91;6158037;23;20012;-95
2023/01/10 02:45:41;;;;;;;13.63;2.60;;;;;;;-146.73;nan;45904.84;6156216;23;20076;-95
2023/01/10 02:48:16;;;;;;;12.98;2.33;;;;;;;-146.73;nan;45885.09;6156989;23;20009;-96
2023/01/10 02:50:42;;;;;;;16.85;2.30;;;;;;;-146.73;nan;45932.47;6182437;23;20013;-95
2023/01/10 02:53:23;;;;;;;21.75;2.42;;;;;;;-146.73;nan;45922.59;6158410;23;20508;-94
2023/01/10 02:56:18;;;;;;;17.70;2.50;;;;;;;-146.73;nan;45904.84;6159005;23;20005;-96
2023/01/10 02:58:55;;;;;;;12.25;2.38;;;;;;;-146.73;nan;45928.50;6150192;23;20005;-96
2023/01/10 03:04:23;;;;;;;16.98;2.65;;;;;;;-146.73;nan;45910.75;6149710;23;20028;-95
2023/01/10 03:07:15;;;;;;;17.00;2.58;;;;;;;-146.73;nan;45904.84;6149421;23;20203;-94
2023/01/10 03:10:00;;;;;;;14.95;2.08;;;;;;;-146.73;nan;45960.06;6152683;23;20012;-95
2023/01/10 03:12:56;;;;;;;16.80;2.58;;;;;;;-146.73;nan;45924.56;6152710;23;20009;-96
2023/01/10 03:16:08;;;;;;;15.43;2.58;;;;;;;-146.73;nan;45869.31;6153012;23;20296;-94
2023/01/10 03:19:01;;;;;;;17.67;2.83;;;;;;;-146.73;nan;45877.22;6152365;23;20017;-95
2023/01/10 03:21:35;;;;;;;18.92;2.78;;;;;;;-146.73;nan;45873.28;6148334;23;20052;-95
2023/01/10 03:28:05;;;;;;;15.45;2.33;;;;;;;-146.73;nan;45883.13;6152878;23;20013;-94
2023/01/10 03:31:00;;;;;;;13.00;1.95;;;;;;;-146.73;nan;45926.53;6149085;23;20010;-96
2023/01/10 03:33:40;;;;;;;17.63;2.22;;;;;;;-146.73;nan;45902.88;6153356;23;20049;-94
2023/01/10 03:36:30;;;;;;;;;;;;;;;;;;;;;
2023/01/10 03:39:49;;;;;;;18.80;2.92;;;;;;;-146.73;nan;45904.84;6136420;23;20084;-94
2023/01/10 03:46:09;;;;;;;18.33;2.90;;;;;;;-146.73;nan;45857.50;6122160;23;20060;-94
2023/01/10 03:48:45;;;;;;;16.27;2.67;;;;;;;-146.73;nan;45863.41;6116552;23;20069;-94
2023/01/10 03:51:31;;;;;;;19.88;2.78;;;;;;;-146.73;nan;45894.97;6095858;23;20037;-94
2023/01/10 03:55:04;;;;;;;25.95;2.78;;;;;;;-146.73;nan;45885.09;6095042;23;20016;-95
2023/01/10 03:57:21;;;;;;;19.55;2.90;;;;;;;-146.73;nan;45908.78;6101263;23;20165;-95
2023/01/10 04:00:19;;;;;;;15.48;2.60;;;;;;;-146.73;nan;45883.13;6095659;23;20503;-95
2023/01/10 04:02:59;;;;;;;15.18;2.30;;;;;;;-146.73;nan;45910.75;6061584;23;20096;-95
2023/01/10 04:05:40;;;;;;;17.35;2.60;;;;;;;-146.73;nan;45904.84;6096588;23;20052;-95
2023/01/10 04:08:27;;;;;;;15.68;2.45;;;;;;;-146.73;nan;45912.72;6097552;23;20681;-94
2023/01/10 04:11:10;;;;;;;18.58;2.97;;;;;;;-146.73;nan;45906.81;6098249;23;20025;-96
2023/01/10 04:16:32;;;;;;;18.80;3.10;;;;;;;-146.73;nan;45887.09;6121425;23;20363;-95
2023/01/10 04:19:13;;;;;;;16.55;3.15;;;;;;;-146.73;nan;45912.72;6098507;23;20025;-95
2023/01/10 04:21:47;;;;;;;17.92;2.45;;;;;;;-146.73;nan;45863.41;6111036;23;20017;-96
2023/01/10 04:24:36;;;;;;;24.08;3.35;;;;;;;-146.73;nan;45875.25;6153284;23;20041;-95
2023/01/10 04:27:17;;;;;;;17.83;2.90;;;;;;;-146.73;nan;45837.75;6152794;23;20014;-94
2023/01/10 04:29:58;;;;;;;17.67;3.13;;;;;;;-146.73;nan;45863.41;6151001;23;20006;-95
2023/01/10 04:32:36;;;;;;;21.77;3.28;;;;;;;-146.73;nan;45883.13;6153550;23;20009;-96
2023/01/10 04:35:06;;;;;;;25.13;3.35;;;;;;;-146.73;nan;45879.19;6153876;23;20013;-96
2023/01/10 04:37:49;;;;;;;21.33;2.95;;;;;;;-146.73;nan;45883.13;6152356;23;20029;-96
2023/01/10 04:40:28;;;;;;;16.55;2.30;;;;;;;-146.73;nan;45871.31;6153161;23;20092;-95
2023/01/10 04:43:14;;;;;;;19.83;2.22;;;;;;;-146.73;nan;45887.09;6152587;23;20009;-95
2023/01/10 04:45:56;;;;;;;;;;;;;;;;;;;;;
2023/01/10 04:52:32;;;;;;;18.77;2.70;;;;;;;-146.73;nan;45847.63;6143625;23;20068;-94
2023/01/10 04:58:22;;;;;;;;;;;;;;;;;;;;;
2023/01/10 05:04:41;;;;;;;20.38;2.65;;;;;;;-146.73;nan;45762.78;6080000;23;20907;-94
2023/01/10 05:07:09;;;;;;;19.13;2.65;;;;;;;-146.73;nan;45758.84;6103053;23;20006;-94
2023/01/10 05:09:53;;;;;;;16.63;2.95;;;;;;;-146.73;nan;45758.84;6090565;23;20003;-95
2023/01/10 05:12:29;;;;;;;14.65;2.20;;;;;;;-146.73;nan;45774.63;6087730;23;20078;-94
2023/01/10 05:15:19;;;;;;;19.55;2.47;;;;;;;-146.73;nan;45774.63;6091975;23;20002;-96
2023/01/10 05:18:10;;;;;;;18.15;2.90;;;;;;;-146.73;nan;45713.47;6108155;23;20010;-95
2023/01/10 05:21:10;;;;;;;15.23;2.25;;;;;;;-146.73;nan;45786.47;6119938;23;19994;-94
2023/01/10 05:24:10;;;;;;;23.33;2.78;;;;;;;-146.73;nan;45770.69;6093209;23;20054;-96
2023/01/10 05:27:46;;;;;;;20.40;2.72;;;;;;;-146.73;nan;45758.84;6118429;23;20063;-94
2023/01/10 05:30:43;;;;;;;26.02;3.25;;;;;;;-146.73;nan;45772.66;6033381;23;20011;-95
2023/01/10 05:34:09;;;;;;;22.30;3.40;;;;;;;-146.73;nan;45820.00;6024639;23;20004;-96
2023/01/10 05:36:59;;;;;;;16.30;2.53;;;;;;;-146.73;nan;45808.16;5931861;24;20613;-95
2023/01/10 05:40:13;;;;;;;17.23;2.50;;;;;;;-146.73;nan;45825.94;5932940;24;20013;-95
2023/01/10 05:43:00;;;;;;;15.98;2.33;;;;;;;-146.73;nan;45821.97;5923794;24;20021;-94
2023/01/10 05:46:03;;;;;;;13.02;2.70;;;;;;;-146.73;nan;45800.28;5926181;24;20103;-96
2023/01/10 05:48:48;;;;;;;24.60;2.67;;;;;;;-146.73;nan;45818.03;5925608;24;20087;-96
2023/01/10 05:51:46;;;;;;;17.13;3.42;;;;;;;-146.73;nan;45821.97;5948396;24;20152;-93
2023/01/10 05:54:32;;;;;;;14.70;3.00;;;;;;;-146.73;nan;45796.34;5942916;24;20012;-96
2023/01/10 05:57:40;;;;;;;14.68;2.53;;;;;;;-146.73;nan;45806.19;5927535;24;20019;-94
2023/01/10 06:00:26;;;;;;;17.67;3.20;;;;;;;-146.73;nan;45790.41;5919974;24;20531;-94
2023/01/10 06:03:36;;;;;;;;;;;;;;;;;;;;;
2023/01/10 06:06:43;;;;;;;21.98;2.47;;;;;;;-146.73;nan;45747.00;6015474;23;20808;-94
2023/01/10 06:09:43;;;;;;;17.67;2.90;;;;;;;-146.73;nan;45790.41;6016764;23;20015;-95
2023/01/10 06:12:11;;;;;;;18.27;2.40;;;;;;;-146.73;nan;45792.38;6099031;23;20428;-94
2023/01/10 06:17:39;;;;;;;17.05;2.35;;;;;;;-146.73;nan;45768.72;6115743;23;20014;-96
2023/01/10 06:20:15;;;;;;;14.30;2.60;;;;;;;-146.73;nan;45810.16;6098143;23;20017;-94
2023/01/10 06:23:04;;;;;;;20.55;2.78;;;;;;;-146.73;nan;45821.97;6098429;23;20037;-94
2023/01/10 06:25:46;;;;;;;12.70;2.60;;;;;;;-146.73;nan;45796.34;5974049;24;20020;-92
2023/01/10 06:28:40;;;;;;;20.75;2.72;;;;;;;-146.73;nan;45810.16;6107420;23;20030;-95
2023/01/10 06:31:13;;;;;;;;;;;;;;;-146.73;nan;45833.81;6095347;23;20030;-93
2023/01/10 06:37:00;;;;;;;25.70;3.00;;;;;;;-146.73;nan;45806.19;6121800;23;20016;-94
2023/01/10 06:40:05;;;;;;;;;;;;;;;-146.73;nan;45782.53;6079808;23;20014;-96
2023/01/10 06:47:00;;;;;;;14.60;2.60;;;;;;;-146.73;nan;45825.94;5968033;23;20027;-96
2023/01/10 06:57:54;;;;;;;23.83;2.88;;;;;;;-146.73;nan;45318.94;6012343;23;20025;-96
2023/01/10 07:00:41;;;;;;;15.35;2.20;;;;;;;-146.73;nan;44524.09;5977414;23;20026;-96
2023/01/10 07:03:08;;;;;;;17.23;2.90;;;;;;;-146.73;nan;43451.38;5977921;23;20120;-93
2023/01/10 07:05:52;;;;;;;15.93;2.53;;;;;;;-146.73;nan;44827.81;6006500;23;20019;-93
2023/01/10 07:08:18;;;;;;;13.18;2.05;;;;;;;-146.73;nan;42635.22;6010715;23;20079;-94
2023/01/10 07:10:44;;;;;;;15.95;2.13;;;;;;;-146.73;nan;21993.78;6010225;23;20432;-94
2023/01/10 07:13:10;;;;;;;13.10;2.22;;;;;;;-146.73;nan;31486.06;6009590;23;20363;-93
2023/01/10 07:15:47;;;;;;;13.95;2.53;;;;;;;-146.73;nan;39344.66;6031701;23;20699;-93
2023/01/10 07:18:12;;;;;;;12.05;1.75;;;;;;;-146.73;nan;38554.94;6007992;23;20158;-94
2023/01/10 07:20:41;;;;;;;16.42;2.20;;;;;;;-146.73;nan;38178.84;6008543;23;20646;-93
2023/01/10 07:23:08;;;;;;;11.07;2.15;;;;;;;-146.73;nan;36438.66;6124129;23;20084;-93
2023/01/10 07:25:33;;;;;;;14.73;2.10;;;;;;;-146.73;nan;38659.31;6150706;23;20017;-93
2023/01/10 07:28:05;;;;;;;15.32;1.80;;;;;;;-146.73;nan;102952.03;6149807;23;20140;-96
2023/01/10 07:30:30;;;;;;;13.93;2.00;;;;;;;-146.73;nan;109104.31;6151100;23;20009;-93
2023/01/10 07:33:02;;;;;;;12.50;2.28;;;;;;;-146.73;nan;109876.00;6152133;23;20037;-94
2023/01/10 07:35:28;;;;;;;17.10;2.08;;;;;;;-146.73;nan;96553.31;6152622;23;20020;-94
2023/01/10 07:38:00;;;;;;;14.88;2.10;;;;;;;-146.73;nan;92718.94;6153341;23;20002;-95
2023/01/10 07:40:26;;;;;;;11.70;1.63;;;;;;;-146.73;nan;109617.41;6151762;23;20372;-95
2023/01/10 07:42:59;;;;;;;11.00;2.40;;;;;;;-146.73;nan;109360.84;6153660;23;20017;-94
2023/01/10 07:45:31;;;;;;;16.48;2.20;;;;;;;-146.73;nan;92463.44;6154840;23;20001;-94
2023/01/10 07:48:02;;;;;;;15.23;1.95;;;;;;;-146.73;nan;105514.34;6153861;23;20014;-94
2023/01/10 07:50:33;;;;;;;10.23;1.48;;;;;;;-146.73;nan;102439.75;6153435;23;20006;-94
2023/01/10 07:53:00;;;;;;;9.95;1.98;;;;;;;-146.73;nan;105258.03;6150025;23;20027;-93
2023/01/10 07:55:29;;;;;;;13.63;1.67;;;;;;;-146.73;nan;104489.22;6147341;23;20016;-94
2023/01/10 07:57:55;;;;;;;10.50;1.80;;;;;;;-146.73;nan;107821.81;6146811;23;20009;-92
2023/01/10 08:00:24;;;;;;;13.27;1.67;;;;;;;-146.73;nan;107821.81;6146302;23;20025;-94
2023/01/10 08:02:52;;;;;;;11.32;1.80;;;;;;;-146.73;nan;105258.03;6149564;23;20005;-94
2023/01/10 08:05:18;;;;;;;12.82;1.63;;;;;;;-146.73;nan;89909.38;6150524;23;20116;-92
2023/01/10 08:07:43;;;;;;;6.43;1.10;;;;;;;-146.73;nan;103464.38;6150961;23;20045;-94
2023/01/10 08:10:10;;;;;;;10.00;1.40;;;;;;;-146.73;nan;102952.03;6146621;23;20037;-93
2023/01/10 08:12:35;;;;;;;9.20;1.92;;;;;;;-146.73;nan;102952.03;6143715;23;20709;-92
2023/01/10 08:15:01;;;;;;;11.40;1.88;;;;;;;-146.73;nan;98343.94;6146386;23;20005;-94
2023/01/10 08:17:26;;;;;;;13.25;2.08;;;;;;;-146.73;nan;94763.47;6142810;23;20067;-93
2023/01/10 08:19:52;;;;;;;9.40;1.52;;;;;;;-146.73;nan;105258.03;6149507;23;20010;-93
2023/01/10 08:22:17;;;;;;;8.00;1.92;;;;;;;-146.73;nan;105258.03;6146378;23;20002;-93
2023/01/10 08:24:43;;;;;;;13.95;1.70;;;;;;;-146.73;nan;104233.00;6146268;23;20060;-93
2023/01/10 08:27:09;;;;;;;12.50;2.03;;;;;;;-146.73;nan;107308.94;6148048;23;20017;-95
2023/01/10 08:29:34;;;;;;;15.15;1.85;;;;;;;-146.73;nan;103208.19;6147334;23;20016;-94
2023/01/10 08:32:02;;;;;;;14.32;1.67;;;;;;;-146.73;nan;89143.47;6147002;23;20051;-93
2023/01/10 08:34:28;;;;;;;7.65;1.48;;;;;;;-146.73;nan;104489.22;6145832;23;20545;-93
2023/01/10 08:36:54;;;;;;;11.57;1.60;;;;;;;-146.73;nan;93996.66;6149180;23;20005;-93
2023/01/10 08:39:21;;;;;;;9.93;1.70;;;;;;;-146.73;nan;97576.44;6146593;23;20032;-93
2023/01/10 08:41:48;;;;;;;13.32;1.90;;;;;;;-146.73;nan;91952.50;6150013;23;20018;-93
2023/01/10 08:44:14;;;;;;;10.05;2.00;;;;;;;-146.73;nan;54796.63;6150075;23;20013;-94
2023/01/10 08:46:41;;;;;;;11.63;2.10;;;;;;;-146.73;nan;49763.66;6149556;23;20012;-94
2023/01/10 08:49:07;;;;;;;12.43;1.88;;;;;;;-146.73;nan;47406.47;6149104;23;20088;-94
2023/01/10 08:51:32;;;;;;;8.85;1.60;;;;;;;-146.73;nan;47992.66;6148070;23;20049;-94
2023/01/10 08:53:58;;;;;;;12.20;2.40;;;;;;;-146.73;nan;48269.03;6147563;23;20013;-96
2023/01/10 08:56:24;;;;;;;9.77;2.00;;;;;;;-146.73;nan;48995.53;6148191;23;20414;-91
2023/01/10 08:58:49;;;;;;;14.30;2.00;;;;;;;-146.73;nan;48770.47;6146661;23;20014;-93
2023/01/10 09:01:15;;;;;;;10.57;2.05;;;;;;;-146.73;nan;48486.16;6149612;23;20049;-93
2023/01/10 09:03:41;;;;;;;9.05;2.42;;;;;;;-146.73;nan;48223.63;6146584;23;20013;-91
2023/01/10 09:06:07;;;;;;;11.05;2.00;;;;;;;-146.73;nan;48760.59;6143867;23;20033;-92
2023/01/10 09:08:33;;;;;;;10.73;2.00;;;;;;;-146.73;nan;48663.84;6144711;23;20020;-92
2023/01/10 09:10:59;;;;;;;11.93;1.83;;;;;;;-146.73;nan;47601.84;6145532;23;20066;-91
2023/01/10 09:13:24;;;;;;;8.93;1.50;;;;;;;-146.73;nan;49382.53;6140547;23;20005;-92
2023/01/10 09:15:54;;;;;;;9.32;1.80;;;;;;;-146.73;nan;48438.78;6142613;23;20013;-93
2023/01/10 09:18:19;;;;;;;8.35;1.60;;;;;;;-146.73;nan;49526.69;6143248;23;20005;-92
2023/01/10 09:20:45;;;;;;;7.43;1.50;;;;;;;-146.73;nan;49897.94;6144268;23;20133;-93
2023/01/10 09:23:17;;;;;;;7.88;1.30;;;;;;;-146.73;nan;51088.94;6143895;23;20010;-92
2023/01/10 09:25:44;;;;;;;8.20;1.20;;;;;;;-146.73;nan;48557.25;6142050;23;20013;-92
2023/01/10 09:28:10;;;;;;;3.30;0.63;;;;;;;-146.73;nan;49540.50;6143934;23;20013;-93
2023/01/10 09:30:36;;;;;;;6.07;1.00;;;;;;;-146.73;nan;51193.66;6143204;23;20001;-91
2023/01/10 09:33:01;;;;;;;2.72;0.77;;;;;;;-146.73;nan;49718.22;6143361;23;20058;-95
2023/01/10 09:35:29;;;;;;;5.93;0.90;;;;;;;-146.73;nan;50081.59;6141792;23;20013;-91
2023/01/10 09:37:56;;;;;;;6.28;0.70;;;;;;;-146.73;nan;49214.69;6141494;23;20024;-90
2023/01/10 09:40:48;;;;;;;4.28;0.75;;;;;;;-146.73;nan;49694.53;6142680;23;20482;-91
2023/01/10 09:43:28;;;;;;;4.05;0.85;;;;;;;-146.73;nan;48675.69;6144193;23;20136;-91
2023/01/10 09:46:01;;;;;;;3.53;0.68;;;;;;;-146.73;nan;48122.94;6143272;23;20021;-91
2023/01/10 09:48:42;;;;;;;4.90;0.90;;;;;;;-146.73;nan;48948.16;6144163;23;20014;-91
2023/01/10 09:51:16;;;;;;;3.03;0.60;;;;;;;-146.73;nan;47890.03;6143451;23;20060;-90
2023/01/10 09:53:43;;;;;;;2.08;0.50;;;;;;;-146.73;nan;48276.91;6143388;23;20018;-91
2023/01/10 09:56:13;;;;;;;2.90;0.68;;;;;;;-146.73;nan;50123.06;6143773;23;20005;-91
2023/01/10 09:58:40;;;;;;;1.75;0.47;;;;;;;-146.73;nan;50478.59;6143273;23;20009;-91
2023/01/10 10:01:11;;;;;;;1.67;0.55;;;;;;;-146.73;nan;48952.09;6144670;23;20418;-92
2023/01/10 10:04:01;;;;;;;4.32;1.05;;;;;;;-146.73;nan;48373.66;6141226;23;20363;-91
2023/01/10 10:06:27;;;;;;;5.03;0.82;;;;;;;-146.73;nan;47120.31;6144598;23;20450;-91
2023/01/10 10:08:53;;;;;;;3.63;0.57;;;;;;;-146.73;nan;48134.78;6143845;23;20037;-90
2023/01/10 10:11:24;;;;;;;5.40;0.85;;;;;;;-146.73;nan;48679.66;6144893;23;20428;-93
2023/01/10 10:13:56;;;;;;;3.25;0.70;;;;;;;-146.73;nan;47919.63;6144710;23;20013;-91
2023/01/10 10:16:49;;;;;;;3.83;0.65;;;;;;;-146.73;nan;48729.00;6142980;23;20722;-93
2023/01/10 10:19:56;;;;;;;3.50;0.70;;;;;;;-146.73;nan;47880.16;6145472;23;20325;-92
2023/01/10 10:22:44;;;;;;;4.40;0.70;;;;;;;-146.73;nan;48758.63;6148539;23;20531;-91
2023/01/10 10:25:34;;;;;;;2.63;0.55;;;;;;;-146.73;nan;48430.91;6146378;23;20073;-92
2023/01/10 10:28:39;;;;;;;2.13;0.40;;;;;;;-146.73;nan;48401.28;6147707;23;20021;-93
2023/01/10 10:31:33;;;;;;;4.35;0.77;;;;;;;-146.73;nan;48618.44;6146808;23;20009;-92
2023/01/10 10:34:35;;;;;;;3.00;0.73;;;;;;;-146.73;nan;47315.69;6145676;23;20016;-93
2023/01/10 10:37:16;;;;;;;3.28;0.70;;;;;;;-146.73;nan;49587.91;6147379;23;20332;-91
2023/01/10 10:39:58;;;;;;;1.27;0.50;;;;;;;-146.73;nan;47968.97;6147841;23;20021;-92
2023/01/10 10:42:30;;;;;;;2.65;0.60;;;;;;;-146.73;nan;49512.84;6145746;23;20013;-94
2023/01/10 10:45:04;;;;;;;3.50;0.80;;;;;;;-146.73;nan;48156.50;6146031;23;20018;-91
2023/01/10 10:47:35;;;;;;;2.75;0.60;;;;;;;-146.73;nan;49647.13;6147546;23;20451;-92
2023/01/10 10:50:07;;;;;;;4.43;0.75;;;;;;;-146.73;nan;48300.59;6146977;23;20349;-91
2023/01/10 10:52:35;;;;;;;2.60;0.52;;;;;;;-146.73;nan;48055.84;6146186;23;20019;-92
2023/01/10 10:55:03;;;;;;;3.03;0.50;;;;;;;-146.73;nan;57381.78;6147110;23;20522;-93
2023/01/10 10:57:33;;;;;;;1.35;0.40;;;;;;;-146.73;nan;49015.28;6149269;23;20033;-92
2023/01/10 11:00:01;;;;;;;1.60;0.50;;;;;;;-146.73;nan;47897.91;6150284;23;20013;-93
2023/01/10 11:02:37;;;;;;;1.50;0.40;;;;;;;-146.73;nan;48444.72;6147229;23;20007;-92
2023/01/10 11:05:07;;;;;;;2.40;0.50;;;;;;;-146.73;nan;48211.78;6146091;23;20017;-92
2023/01/10 11:07:36;;;;;;;2.45;0.43;;;;;;;-146.73;nan;49668.88;6147336;23;20036;-93
2023/01/10 11:12:46;;;;;;;1.67;0.30;;;;;;;-146.73;nan;49473.38;6149646;23;20339;-92
2023/01/10 11:15:41;;;;;;;2.30;0.40;;;;;;;-146.73;nan;47882.13;6146713;23;20018;-93
2023/01/10 11:18:19;;;;;;;2.05;0.60;;;;;;;-146.73;nan;48051.88;6144663;23;20759;-92
2023/01/10 11:20:50;;;;;;;2.20;0.52;;;;;;;-146.73;nan;47892.00;6147746;23;20419;-92
2023/01/10 11:23:42;;;;;;;1.58;0.60;;;;;;;-146.73;nan;48389.44;6147345;23;20013;-92
2023/01/10 11:26:26;;;;;;;4.32;0.80;;;;;;;-146.73;nan;47159.78;6145507;23;20439;-92
2023/01/10 11:29:05;;;;;;;2.65;0.68;;;;;;;-146.73;nan;48766.50;6146206;23;20013;-95
2023/01/10 11:31:32;;;;;;;2.22;0.50;;;;;;;-146.73;nan;47145.97;6143939;23;20018;-92
2023/01/10 11:33:58;;;;;;;3.67;0.80;;;;;;;-146.73;nan;47838.72;6146705;23;20470;-93
2023/01/10 11:36:24;;;;;;;2.17;0.68;;;;;;;-146.73;nan;47386.72;6145477;23;20009;-93
2023/01/10 11:39:03;;;;;;;4.45;1.00;;;;;;;-146.73;nan;47558.44;6146490;23;20001;-93
2023/01/10 11:41:33;;;;;;;3.30;1.02;;;;;;;-146.73;nan;47276.22;6147896;23;20116;-93
2023/01/10 11:44:17;;;;;;;4.45;1.08;;;;;;;-146.73;nan;47795.28;6147061;23;20017;-92
2023/01/10 11:46:48;;;;;;;5.32;2.17;;;;;;;-146.73;nan;48263.09;6147239;23;20017;-93
2023/01/10 11:49:35;;;;;;;3.72;0.93;;;;;;;-146.73;nan;48689.50;6145669;23;20104;-93
2023/01/10 11:52:12;;;;;;;4.35;1.13;;;;;;;-146.73;nan;49732.06;6144775;23;20778;-94
2023/01/10 11:54:40;;;;;;;4.82;1.30;;;;;;;-146.73;nan;50101.34;6145188;23;20346;-94
2023/01/10 11:57:09;;;;;;;4.75;1.20;;;;;;;-146.73;nan;47544.63;6146200;23;20012;-93
2023/01/10 11:59:34;;;;;;;5.45;1.52;;;;;;;-146.73;nan;48075.56;6147397;23;20088;-94
2023/01/10 12:02:16;;;;;;;5.00;1.33;;;;;;;-146.73;nan;48411.16;6148315;23;20052;-93
2023/01/10 12:04:46;;;;;;;6.10;1.70;;;;;;;-146.73;nan;48573.03;6149164;23;20396;-94
2023/01/10 12:07:12;;;;;;;5.63;1.70;;;;;;;-146.73;nan;47605.81;6147258;23;20017;-94
2023/01/10 12:10:02;;;;;;;5.80;1.67;;;;;;;-146.73;nan;47353.19;6149582;23;20371;-95
2023/01/10 12:12:30;;;;;;;5.47;1.55;;;;;;;-146.73;nan;50085.56;6145141;23;20024;-93
2023/01/10 12:15:19;;;;;;;4.60;1.30;;;;;;;-146.73;nan;50239.59;6147981;23;20439;-94
2023/01/10 12:17:45;;;;;;;4.95;1.30;;;;;;;-146.73;nan;49339.09;6143594;23;20248;-93
2023/01/10 12:20:13;;;;;;;4.72;1.30;;;;;;;-146.73;nan;49009.34;6147105;23;20020;-93
2023/01/10 12:22:48;;;;;;;3.60;0.85;;;;;;;-146.73;nan;50836.09;6144574;23;20005;-94
2023/01/10 12:25:20;;;;;;;3.72;1.00;;;;;;;-146.73;nan;55249.44;6144993;23;20005;-92
2023/01/10 12:27:49;;;;;;;3.97;1.00;;;;;;;-146.73;nan;52740.75;6145066;23;20017;-93
2023/01/10 12:30:48;;;;;;;3.65;1.00;;;;;;;-146.73;nan;52873.19;6144747;23;20727;-93
2023/01/10 12:33:22;;;;;;;4.25;1.02;;;;;;;-146.73;nan;53853.56;6146532;23;20013;-93
2023/01/10 12:36:13;;;;;;;2.90;0.98;;;;;;;-146.73;nan;53576.81;6143358;23;20018;-94
2023/01/10 12:39:02;;;;;;;3.28;0.90;;;;;;;-146.73;nan;53908.91;6146255;23;20006;-94
2023/01/10 12:44:32;;;;;;;3.05;0.80;;;;;;;-146.73;nan;53622.28;6145947;23;20140;-94
2023/01/10 12:47:18;;;;;;;5.65;1.02;;;;;;;-146.73;nan;89654.06;6143712;23;20087;-93
2023/01/10 12:49:57;;;;;;;4.60;1.02;;;;;;;-146.73;nan;71684.94;6145052;23;20048;-94
2023/01/10 12:52:55;;;;;;;4.53;1.10;;;;;;;-146.73;nan;55898.13;6145682;23;20432;-95
2023/01/10 12:55:25;;;;;;;4.18;0.82;;;;;;;-146.73;nan;58994.66;6146457;23;20016;-92
2023/01/10 12:57:57;;;;;;;4.38;1.10;;;;;;;-146.73;nan;73093.03;6147537;23;20024;-95
2023/01/10 13:00:31;;;;;;;5.50;1.13;;;;;;;-146.73;nan;67975.38;6145265;23;20020;-95
2023/01/10 13:02:59;;;;;;;6.55;1.38;;;;;;;-146.73;nan;65900.78;6145143;23;20443;-94
2023/01/10 13:05:29;;;;;;;4.35;1.20;;;;;;;-146.73;nan;59788.47;6146831;23;20123;-94
2023/01/10 13:08:09;;;;;;;3.75;1.10;;;;;;;-146.73;nan;65994.00;6145597;23;20024;-94
2023/01/10 13:10:40;;;;;;;4.68;1.27;;;;;;;-146.73;nan;55670.69;6144712;23;20055;-94